sensor_id;sensor_type;location;lat;lon;timestamp;temperature;humidity
7194;DHT22;3638;48.820;9.244;2023-02-15T00:01:10;0.10;99.90
7194;DHT22;3638;48.820;9.244;2023-02-15T00:03:37;0.00;99.90
7194;DHT22;3638;48.820;9.244;2023-02-15T00:06:05;0.10;99.90
7194;DHT22;3638;48.820;9.244;2023-02-15T00:08:33;0.10;99.90
7194;DHT22;3638;48.820;9.244;2023-02-15T00:11:05;0.30;99.90
7194;DHT22;3638;48.820;9.244;2023-02-15T00:13:32;0.20;99.90
7194;DHT22;3638;48.820;9.244;2023-02-15T00:16:02;0.00;99.90
7194;DHT22;3638;48.820;9.244;2023-02-15T00:18:29;-0.20;99.90
7194;DHT22;3638;48.820;9.244;2023-02-15T00:20:57;-0.20;99.90
7194;DHT22;3638;48.820;9.244;2023-02-15T00:23:26;-0.10;99.90
7194;DHT22;3638;48.820;9.244;2023-02-15T00:26:03;0.00;99.90
7194;DHT22;3638;48.820;9.244;2023-02-15T00:28:31;0.10;99.90
7194;DHT22;3638;48.820;9.244;2023-02-15T00:31:03;0.10;99.90
7194;DHT22;3638;48.820;9.244;2023-02-15T00:33:31;0.00;99.90
7194;DHT22;3638;48.820;9.244;2023-02-15T00:35:59;-0.20;99.90
7194;DHT22;3638;48.820;9.244;2023-02-15T00:38:27;-0.30;99.90
7194;DHT22;3638;48.820;9.244;2023-02-15T00:41:00;-0.40;99.90
7194;DHT22;3638;48.820;9.244;2023-02-15T00:43:30;-0.40;99.90
7194;DHT22;3638;48.820;9.244;2023-02-15T00:45:58;-0.40;99.90
7194;DHT22;3638;48.820;9.244;2023-02-15T00:48:26;-0.20;99.90
7194;DHT22;3638;48.820;9.244;2023-02-15T00:50:55;-0.10;99.90
7194;DHT22;3638;48.820;9.244;2023-02-15T00:53:26;0.10;99.90
7194;DHT22;3638;48.820;9.244;2023-02-15T00:55:53;0.10;99.90
7194;DHT22;3638;48.820;9.244;2023-02-15T00:58:22;0.00;99.90
7194;DHT22;3638;48.820;9.244;2023-02-15T01:00:49;-0.10;99.90
7194;DHT22;3638;48.820;9.244;2023-02-15T01:03:17;-0.10;99.90
7194;DHT22;3638;48.820;9.244;2023-02-15T01:05:47;-0.10;99.90
7194;DHT22;3638;48.820;9.244;2023-02-15T01:08:15;-0.20;99.90
7194;DHT22;3638;48.820;9.244;2023-02-15T01:10:42;-0.20;99.90
7194;DHT22;3638;48.820;9.244;2023-02-15T01:13:13;-0.30;99.90
7194;DHT22;3638;48.820;9.244;2023-02-15T01:15:43;-0.20;99.90
7194;DHT22;3638;48.820;9.244;2023-02-15T01:18:10;-0.30;99.90
7194;DHT22;3638;48.820;9.244;2023-02-15T01:20:39;-0.30;99.90
7194;DHT22;3638;48.820;9.244;2023-02-15T01:23:07;-0.50;99.90
7194;DHT22;3638;48.820;9.244;2023-02-15T01:25:35;-0.40;99.90
7194;DHT22;3638;48.820;9.244;2023-02-15T01:28:03;-0.40;99.90
7194;DHT22;3638;48.820;9.244;2023-02-15T01:30:31;-0.40;99.90
7194;DHT22;3638;48.820;9.244;2023-02-15T01:33:00;-0.40;99.90
7194;DHT22;3638;48.820;9.244;2023-02-15T01:35:27;-0.50;99.90
7194;DHT22;3638;48.820;9.244;2023-02-15T01:37:55;-0.80;99.90
7194;DHT22;3638;48.820;9.244;2023-02-15T01:40:23;-0.80;99.90
7194;DHT22;3638;48.820;9.244;2023-02-15T01:42:51;-0.80;99.90
7194;DHT22;3638;48.820;9.244;2023-02-15T01:45:22;-0.80;99.90
7194;DHT22;3638;48.820;9.244;2023-02-15T01:47:54;-0.80;99.90
7194;DHT22;3638;48.820;9.244;2023-02-15T01:50:27;-0.90;99.90
7194;DHT22;3638;48.820;9.244;2023-02-15T01:53:01;-0.90;99.90
7194;DHT22;3638;48.820;9.244;2023-02-15T01:55:33;-0.90;99.90
7194;DHT22;3638;48.820;9.244;2023-02-15T01:58:02;-0.90;99.90
7194;DHT22;3638;48.820;9.244;2023-02-15T02:00:30;-1.00;99.90
7194;DHT22;3638;48.820;9.244;2023-02-15T02:02:57;-0.90;99.90
7194;DHT22;3638;48.820;9.244;2023-02-15T02:05:26;-1.00;99.90
7194;DHT22;3638;48.820;9.244;2023-02-15T02:07:56;-1.20;99.90
7194;DHT22;3638;48.820;9.244;2023-02-15T02:10:26;-1.20;99.90
7194;DHT22;3638;48.820;9.244;2023-02-15T02:12:56;-1.20;99.90
7194;DHT22;3638;48.820;9.244;2023-02-15T02:15:33;-1.20;99.90
7194;DHT22;3638;48.820;9.244;2023-02-15T02:18:15;-1.20;99.90
7194;DHT22;3638;48.820;9.244;2023-02-15T02:21:07;-1.20;99.90
7194;DHT22;3638;48.820;9.244;2023-02-15T02:24:23;-1.10;99.90
7194;DHT22;3638;48.820;9.244;2023-02-15T02:27:36;-1.20;99.90
7194;DHT22;3638;48.820;9.244;2023-02-15T02:30:49;-1.20;99.90
7194;DHT22;3638;48.820;9.244;2023-02-15T02:33:35;-1.20;99.90
7194;DHT22;3638;48.820;9.244;2023-02-15T02:36:16;-1.20;99.90
7194;DHT22;3638;48.820;9.244;2023-02-15T02:38:57;-1.10;99.90
7194;DHT22;3638;48.820;9.244;2023-02-15T02:41:36;-1.10;99.90
7194;DHT22;3638;48.820;9.244;2023-02-15T02:44:12;-1.00;99.90
7194;DHT22;3638;48.820;9.244;2023-02-15T02:46:47;-1.00;99.90
7194;DHT22;3638;48.820;9.244;2023-02-15T02:49:31;-0.90;99.90
7194;DHT22;3638;48.820;9.244;2023-02-15T02:51:59;-0.90;99.90
7194;DHT22;3638;48.820;9.244;2023-02-15T02:54:27;-0.90;99.90
7194;DHT22;3638;48.820;9.244;2023-02-15T02:56:56;-0.90;99.90
7194;DHT22;3638;48.820;9.244;2023-02-15T02:59:29;-0.90;99.90
7194;DHT22;3638;48.820;9.244;2023-02-15T03:02:01;-1.00;99.90
7194;DHT22;3638;48.820;9.244;2023-02-15T03:04:40;-1.10;99.90
7194;DHT22;3638;48.820;9.244;2023-02-15T03:07:12;-1.20;99.90
7194;DHT22;3638;48.820;9.244;2023-02-15T03:09:45;-1.20;99.90
7194;DHT22;3638;48.820;9.244;2023-02-15T03:12:19;-1.30;99.90
7194;DHT22;3638;48.820;9.244;2023-02-15T03:14:51;-1.30;99.90
7194;DHT22;3638;48.820;9.244;2023-02-15T03:17:20;-1.30;99.90
7194;DHT22;3638;48.820;9.244;2023-02-15T03:19:52;-1.20;99.90
7194;DHT22;3638;48.820;9.244;2023-02-15T03:22:24;-1.30;99.90
7194;DHT22;3638;48.820;9.244;2023-02-15T03:24:57;-1.30;99.90
7194;DHT22;3638;48.820;9.244;2023-02-15T03:27:32;-1.20;99.90
7194;DHT22;3638;48.820;9.244;2023-02-15T03:30:02;-1.20;99.90
7194;DHT22;3638;48.820;9.244;2023-02-15T03:32:32;-1.20;99.90
7194;DHT22;3638;48.820;9.244;2023-02-15T03:35:01;-1.10;99.90
7194;DHT22;3638;48.820;9.244;2023-02-15T03:37:33;-1.00;99.90
7194;DHT22;3638;48.820;9.244;2023-02-15T03:40:07;-0.90;99.90
7194;DHT22;3638;48.820;9.244;2023-02-15T03:42:55;-0.90;99.90
7194;DHT22;3638;48.820;9.244;2023-02-15T03:45:30;-1.00;99.90
7194;DHT22;3638;48.820;9.244;2023-02-15T03:47:59;-1.00;99.90
7194;DHT22;3638;48.820;9.244;2023-02-15T03:50:30;-1.00;99.90
7194;DHT22;3638;48.820;9.244;2023-02-15T03:53:18;-1.10;99.90
7194;DHT22;3638;48.820;9.244;2023-02-15T03:55:47;-1.10;99.90
7194;DHT22;3638;48.820;9.244;2023-02-15T03:58:14;-1.20;99.90
7194;DHT22;3638;48.820;9.244;2023-02-15T04:01:09;-1.30;99.90
7194;DHT22;3638;48.820;9.244;2023-02-15T04:03:59;-1.30;99.90
7194;DHT22;3638;48.820;9.244;2023-02-15T04:06:29;-1.30;99.90
7194;DHT22;3638;48.820;9.244;2023-02-15T04:08:56;-1.40;99.90
7194;DHT22;3638;48.820;9.244;2023-02-15T04:11:40;-1.50;99.90
7194;DHT22;3638;48.820;9.244;2023-02-15T04:14:07;-1.60;99.90
7194;DHT22;3638;48.820;9.244;2023-02-15T04:16:48;-1.60;99.90
7194;DHT22;3638;48.820;9.244;2023-02-15T04:19:15;-1.60;99.90
7194;DHT22;3638;48.820;9.244;2023-02-15T04:22:00;-1.60;99.90
7194;DHT22;3638;48.820;9.244;2023-02-15T04:24:45;-1.70;99.90
7194;DHT22;3638;48.820;9.244;2023-02-15T04:27:30;-1.90;99.90
7194;DHT22;3638;48.820;9.244;2023-02-15T04:29:57;-2.10;99.90
7194;DHT22;3638;48.820;9.244;2023-02-15T04:32:23;-2.30;99.90
7194;DHT22;3638;48.820;9.244;2023-02-15T04:34:50;-2.30;99.90
7194;DHT22;3638;48.820;9.244;2023-02-15T04:37:19;-2.50;99.90
7194;DHT22;3638;48.820;9.244;2023-02-15T04:39:46;-2.70;99.90
7194;DHT22;3638;48.820;9.244;2023-02-15T04:42:12;-2.80;99.90
7194;DHT22;3638;48.820;9.244;2023-02-15T04:44:39;-2.80;99.90
7194;DHT22;3638;48.820;9.244;2023-02-15T04:47:06;-2.80;99.90
7194;DHT22;3638;48.820;9.244;2023-02-15T04:49:33;-2.90;99.90
7194;DHT22;3638;48.820;9.244;2023-02-15T04:52:00;-2.90;99.90
7194;DHT22;3638;48.820;9.244;2023-02-15T04:54:28;-2.90;99.90
7194;DHT22;3638;48.820;9.244;2023-02-15T04:56:55;-2.90;99.90
7194;DHT22;3638;48.820;9.244;2023-02-15T04:59:22;-2.80;99.90
7194;DHT22;3638;48.820;9.244;2023-02-15T05:01:49;-2.80;99.90
7194;DHT22;3638;48.820;9.244;2023-02-15T05:04:16;-2.80;99.90
7194;DHT22;3638;48.820;9.244;2023-02-15T05:06:43;-2.90;99.90
7194;DHT22;3638;48.820;9.244;2023-02-15T05:09:10;-2.90;99.90
7194;DHT22;3638;48.820;9.244;2023-02-15T05:11:38;-2.70;99.90
7194;DHT22;3638;48.820;9.244;2023-02-15T05:14:05;-2.80;99.90
7194;DHT22;3638;48.820;9.244;2023-02-15T05:16:32;-2.90;99.90
7194;DHT22;3638;48.820;9.244;2023-02-15T05:18:59;-2.90;99.90
7194;DHT22;3638;48.820;9.244;2023-02-15T05:21:26;-3.00;99.90
7194;DHT22;3638;48.820;9.244;2023-02-15T05:23:53;-3.00;99.90
7194;DHT22;3638;48.820;9.244;2023-02-15T05:26:23;-3.10;99.90
7194;DHT22;3638;48.820;9.244;2023-02-15T05:29:10;-3.10;99.90
7194;DHT22;3638;48.820;9.244;2023-02-15T05:31:38;-3.00;99.90
7194;DHT22;3638;48.820;9.244;2023-02-15T05:34:04;-3.00;99.90
7194;DHT22;3638;48.820;9.244;2023-02-15T05:36:31;-2.80;99.90
7194;DHT22;3638;48.820;9.244;2023-02-15T05:38:58;-2.70;99.90
7194;DHT22;3638;48.820;9.244;2023-02-15T05:41:25;-2.80;99.90
7194;DHT22;3638;48.820;9.244;2023-02-15T05:43:55;-2.70;99.90
7194;DHT22;3638;48.820;9.244;2023-02-15T05:46:23;-2.70;99.90
7194;DHT22;3638;48.820;9.244;2023-02-15T05:48:50;-2.60;99.90
7194;DHT22;3638;48.820;9.244;2023-02-15T05:51:17;-2.50;99.90
7194;DHT22;3638;48.820;9.244;2023-02-15T05:53:44;-2.50;99.90
7194;DHT22;3638;48.820;9.244;2023-02-15T05:56:11;-2.60;99.90
7194;DHT22;3638;48.820;9.244;2023-02-15T05:58:39;-2.50;99.90
7194;DHT22;3638;48.820;9.244;2023-02-15T06:01:08;-2.50;99.90
7194;DHT22;3638;48.820;9.244;2023-02-15T06:03:36;-2.60;99.90
7194;DHT22;3638;48.820;9.244;2023-02-15T06:06:03;-2.60;99.90
7194;DHT22;3638;48.820;9.244;2023-02-15T06:08:31;-2.70;99.90
7194;DHT22;3638;48.820;9.244;2023-02-15T06:10:58;-2.70;99.90
7194;DHT22;3638;48.820;9.244;2023-02-15T06:13:26;-2.80;99.90
7194;DHT22;3638;48.820;9.244;2023-02-15T06:15:53;-2.90;99.90
7194;DHT22;3638;48.820;9.244;2023-02-15T06:18:20;-2.80;99.90
7194;DHT22;3638;48.820;9.244;2023-02-15T06:20:49;-2.90;99.90
7194;DHT22;3638;48.820;9.244;2023-02-15T06:23:16;-2.90;99.90
7194;DHT22;3638;48.820;9.244;2023-02-15T06:25:44;-2.90;99.90
7194;DHT22;3638;48.820;9.244;2023-02-15T06:28:11;-2.90;99.90
7194;DHT22;3638;48.820;9.244;2023-02-15T06:30:39;-2.90;99.90
7194;DHT22;3638;48.820;9.244;2023-02-15T06:33:06;-2.80;99.90
7194;DHT22;3638;48.820;9.244;2023-02-15T06:35:32;-2.70;99.90
7194;DHT22;3638;48.820;9.244;2023-02-15T06:38:01;-2.80;99.90
7194;DHT22;3638;48.820;9.244;2023-02-15T06:40:27;-2.80;99.90
7194;DHT22;3638;48.820;9.244;2023-02-15T06:42:54;-2.80;99.90
7194;DHT22;3638;48.820;9.244;2023-02-15T06:45:21;-2.80;99.90
7194;DHT22;3638;48.820;9.244;2023-02-15T06:47:48;-2.80;99.90
7194;DHT22;3638;48.820;9.244;2023-02-15T06:50:15;-2.80;99.90
7194;DHT22;3638;48.820;9.244;2023-02-15T06:52:42;-2.70;99.90
7194;DHT22;3638;48.820;9.244;2023-02-15T06:55:10;-2.70;99.90
7194;DHT22;3638;48.820;9.244;2023-02-15T06:57:37;-2.70;99.90
7194;DHT22;3638;48.820;9.244;2023-02-15T07:00:05;-2.60;99.90
7194;DHT22;3638;48.820;9.244;2023-02-15T07:02:33;-2.50;99.90
7194;DHT22;3638;48.820;9.244;2023-02-15T07:05:00;-2.50;99.90
7194;DHT22;3638;48.820;9.244;2023-02-15T07:07:28;-2.40;99.90
7194;DHT22;3638;48.820;9.244;2023-02-15T07:09:54;-2.50;99.90
7194;DHT22;3638;48.820;9.244;2023-02-15T07:12:23;-2.50;99.90
7194;DHT22;3638;48.820;9.244;2023-02-15T07:15:08;-2.50;99.90
7194;DHT22;3638;48.820;9.244;2023-02-15T07:17:36;-2.40;99.90
7194;DHT22;3638;48.820;9.244;2023-02-15T07:20:05;-2.40;99.90
7194;DHT22;3638;48.820;9.244;2023-02-15T07:22:33;-2.30;99.90
7194;DHT22;3638;48.820;9.244;2023-02-15T07:25:01;-2.10;99.90
7194;DHT22;3638;48.820;9.244;2023-02-15T07:27:30;-2.10;99.90
7194;DHT22;3638;48.820;9.244;2023-02-15T07:29:57;-2.00;99.90
7194;DHT22;3638;48.820;9.244;2023-02-15T07:32:27;-1.80;99.90
7194;DHT22;3638;48.820;9.244;2023-02-15T07:34:55;-1.70;99.90
7194;DHT22;3638;48.820;9.244;2023-02-15T07:37:22;-1.80;99.90
7194;DHT22;3638;48.820;9.244;2023-02-15T07:39:49;-1.70;99.90
7194;DHT22;3638;48.820;9.244;2023-02-15T07:42:16;-1.60;99.90
7194;DHT22;3638;48.820;9.244;2023-02-15T07:44:44;-1.60;99.90
7194;DHT22;3638;48.820;9.244;2023-02-15T07:47:11;-1.60;99.90
7194;DHT22;3638;48.820;9.244;2023-02-15T07:49:38;-1.40;99.90
7194;DHT22;3638;48.820;9.244;2023-02-15T07:52:05;-1.40;99.90
7194;DHT22;3638;48.820;9.244;2023-02-15T07:54:32;-1.30;99.90
7194;DHT22;3638;48.820;9.244;2023-02-15T07:57:00;-1.20;99.90
7194;DHT22;3638;48.820;9.244;2023-02-15T07:59:27;-1.10;99.90
7194;DHT22;3638;48.820;9.244;2023-02-15T08:01:55;-1.00;99.90
7194;DHT22;3638;48.820;9.244;2023-02-15T08:04:23;-1.10;99.90
7194;DHT22;3638;48.820;9.244;2023-02-15T08:06:52;-1.10;99.90
7194;DHT22;3638;48.820;9.244;2023-02-15T08:09:20;-1.30;99.90
7194;DHT22;3638;48.820;9.244;2023-02-15T08:11:48;-1.20;99.90
7194;DHT22;3638;48.820;9.244;2023-02-15T08:14:16;-1.10;99.90
7194;DHT22;3638;48.820;9.244;2023-02-15T08:16:45;-1.00;99.90
7194;DHT22;3638;48.820;9.244;2023-02-15T08:19:16;-1.00;99.90
7194;DHT22;3638;48.820;9.244;2023-02-15T08:21:45;-1.00;99.90
7194;DHT22;3638;48.820;9.244;2023-02-15T08:24:15;-1.00;99.90
7194;DHT22;3638;48.820;9.244;2023-02-15T08:26:43;-1.10;99.90
7194;DHT22;3638;48.820;9.244;2023-02-15T08:29:12;-1.00;99.90
7194;DHT22;3638;48.820;9.244;2023-02-15T08:31:40;-0.80;99.90
7194;DHT22;3638;48.820;9.244;2023-02-15T08:34:08;-0.70;99.90
7194;DHT22;3638;48.820;9.244;2023-02-15T08:36:38;-0.60;99.90
7194;DHT22;3638;48.820;9.244;2023-02-15T08:39:05;-0.20;99.90
7194;DHT22;3638;48.820;9.244;2023-02-15T08:41:34;-0.30;99.90
7194;DHT22;3638;48.820;9.244;2023-02-15T08:44:03;-0.40;99.90
7194;DHT22;3638;48.820;9.244;2023-02-15T08:46:33;-0.50;99.90
7194;DHT22;3638;48.820;9.244;2023-02-15T08:49:02;-0.70;99.90
7194;DHT22;3638;48.820;9.244;2023-02-15T08:51:30;-0.80;99.90
7194;DHT22;3638;48.820;9.244;2023-02-15T08:54:02;-0.70;99.90
7194;DHT22;3638;48.820;9.244;2023-02-15T08:56:33;-0.50;99.90
7194;DHT22;3638;48.820;9.244;2023-02-15T08:59:02;-0.30;99.90
7194;DHT22;3638;48.820;9.244;2023-02-15T09:01:32;-0.30;99.90
7194;DHT22;3638;48.820;9.244;2023-02-15T09:04:02;-0.30;99.90
7194;DHT22;3638;48.820;9.244;2023-02-15T09:06:31;-0.10;99.90
7194;DHT22;3638;48.820;9.244;2023-02-15T09:08:59;-0.10;99.90
7194;DHT22;3638;48.820;9.244;2023-02-15T09:11:27;-0.10;99.90
7194;DHT22;3638;48.820;9.244;2023-02-15T09:13:57;0.30;99.90
7194;DHT22;3638;48.820;9.244;2023-02-15T09:16:26;0.60;99.90
7194;DHT22;3638;48.820;9.244;2023-02-15T09:18:55;0.40;99.90
7194;DHT22;3638;48.820;9.244;2023-02-15T09:21:25;0.10;99.90
7194;DHT22;3638;48.820;9.244;2023-02-15T09:23:56;0.10;99.90
7194;DHT22;3638;48.820;9.244;2023-02-15T09:26:27;0.20;99.90
7194;DHT22;3638;48.820;9.244;2023-02-15T09:28:59;0.50;99.90
7194;DHT22;3638;48.820;9.244;2023-02-15T09:31:30;0.50;99.90
7194;DHT22;3638;48.820;9.244;2023-02-15T09:33:59;0.70;99.90
7194;DHT22;3638;48.820;9.244;2023-02-15T12:01:16;4.60;99.90
7194;DHT22;3638;48.820;9.244;2023-02-15T12:03:50;4.80;99.90
7194;DHT22;3638;48.820;9.244;2023-02-15T12:06:24;4.80;99.90
7194;DHT22;3638;48.820;9.244;2023-02-15T12:08:56;5.00;99.90
7194;DHT22;3638;48.820;9.244;2023-02-15T12:11:33;5.00;99.90
7194;DHT22;3638;48.820;9.244;2023-02-15T12:14:03;5.10;99.90
7194;DHT22;3638;48.820;9.244;2023-02-15T12:16:40;5.20;99.90
7194;DHT22;3638;48.820;9.244;2023-02-15T12:19:26;5.30;99.90
7194;DHT22;3638;48.820;9.244;2023-02-15T12:21:56;5.30;99.90
7194;DHT22;3638;48.820;9.244;2023-02-15T12:24:27;5.40;99.90
7194;DHT22;3638;48.820;9.244;2023-02-15T12:27:01;5.50;99.90
7194;DHT22;3638;48.820;9.244;2023-02-15T12:29:31;5.70;99.90
7194;DHT22;3638;48.820;9.244;2023-02-15T12:32:04;5.80;99.90
7194;DHT22;3638;48.820;9.244;2023-02-15T12:34:33;5.90;99.90
7194;DHT22;3638;48.820;9.244;2023-02-15T12:37:10;5.90;99.90
7194;DHT22;3638;48.820;9.244;2023-02-15T12:39:51;5.90;99.90
7194;DHT22;3638;48.820;9.244;2023-02-15T12:42:20;6.00;99.90
7194;DHT22;3638;48.820;9.244;2023-02-15T12:44:58;5.90;99.90
7194;DHT22;3638;48.820;9.244;2023-02-15T12:47:28;6.00;99.90
7194;DHT22;3638;48.820;9.244;2023-02-15T12:50:08;6.00;99.90
7194;DHT22;3638;48.820;9.244;2023-02-15T12:52:45;6.00;99.90
7194;DHT22;3638;48.820;9.244;2023-02-15T12:55:22;6.00;99.90
7194;DHT22;3638;48.820;9.244;2023-02-15T12:58:06;6.10;99.90
7194;DHT22;3638;48.820;9.244;2023-02-15T13:00:33;6.20;99.90
7194;DHT22;3638;48.820;9.244;2023-02-15T13:03:02;6.20;99.90
7194;DHT22;3638;48.820;9.244;2023-02-15T13:05:32;6.20;99.90
7194;DHT22;3638;48.820;9.244;2023-02-15T13:08:08;6.30;99.90
7194;DHT22;3638;48.820;9.244;2023-02-15T13:10:39;6.30;99.90
7194;DHT22;3638;48.820;9.244;2023-02-15T13:13:10;6.40;99.90
7194;DHT22;3638;48.820;9.244;2023-02-15T13:15:39;6.40;99.90
7194;DHT22;3638;48.820;9.244;2023-02-15T13:18:16;6.40;99.90
7194;DHT22;3638;48.820;9.244;2023-02-15T13:20:44;6.40;99.90
7194;DHT22;3638;48.820;9.244;2023-02-15T13:23:24;6.50;99.90
7194;DHT22;3638;48.820;9.244;2023-02-15T13:25:55;6.60;99.90
7194;DHT22;3638;48.820;9.244;2023-02-15T13:28:25;6.70;99.90
7194;DHT22;3638;48.820;9.244;2023-02-15T13:30:54;6.70;99.90
7194;DHT22;3638;48.820;9.244;2023-02-15T13:33:27;6.70;99.90
7194;DHT22;3638;48.820;9.244;2023-02-15T13:36:02;6.80;99.90
7194;DHT22;3638;48.820;9.244;2023-02-15T13:38:46;6.80;99.90
7194;DHT22;3638;48.820;9.244;2023-02-15T13:41:19;6.80;99.90
7194;DHT22;3638;48.820;9.244;2023-02-15T13:43:54;6.90;99.90
7194;DHT22;3638;48.820;9.244;2023-02-15T13:46:43;7.00;99.90
7194;DHT22;3638;48.820;9.244;2023-02-15T13:49:30;7.10;99.90
7194;DHT22;3638;48.820;9.244;2023-02-15T13:52:19;7.20;99.90
7194;DHT22;3638;48.820;9.244;2023-02-15T14:01:01;7.30;99.90
7194;DHT22;3638;48.820;9.244;2023-02-15T14:03:59;7.40;99.90
7194;DHT22;3638;48.820;9.244;2023-02-15T14:10:15;7.60;99.90
7194;DHT22;3638;48.820;9.244;2023-02-15T14:12:58;7.60;99.90
7194;DHT22;3638;48.820;9.244;2023-02-15T14:15:39;7.70;99.90
7194;DHT22;3638;48.820;9.244;2023-02-15T14:18:17;7.80;99.90
7194;DHT22;3638;48.820;9.244;2023-02-15T14:20:56;7.80;99.90
7194;DHT22;3638;48.820;9.244;2023-02-15T14:23:39;7.90;99.90
7194;DHT22;3638;48.820;9.244;2023-02-15T14:26:15;7.90;99.90
7194;DHT22;3638;48.820;9.244;2023-02-15T14:28:51;8.00;99.90
7194;DHT22;3638;48.820;9.244;2023-02-15T14:31:26;8.10;99.90
7194;DHT22;3638;48.820;9.244;2023-02-15T14:33:56;8.20;99.90
7194;DHT22;3638;48.820;9.244;2023-02-15T14:36:25;8.20;99.90
7194;DHT22;3638;48.820;9.244;2023-02-15T14:39:04;8.20;99.90
7194;DHT22;3638;48.820;9.244;2023-02-15T14:42:01;8.30;99.90
7194;DHT22;3638;48.820;9.244;2023-02-15T14:44:35;8.30;99.90
7194;DHT22;3638;48.820;9.244;2023-02-15T14:47:09;8.30;99.90
7194;DHT22;3638;48.820;9.244;2023-02-15T14:49:39;8.40;99.90
7194;DHT22;3638;48.820;9.244;2023-02-15T14:52:07;8.40;99.90
7194;DHT22;3638;48.820;9.244;2023-02-15T14:55:10;8.40;99.90
7194;DHT22;3638;48.820;9.244;2023-02-15T14:58:00;8.40;99.90
7194;DHT22;3638;48.820;9.244;2023-02-15T15:00:38;8.50;99.90
7194;DHT22;3638;48.820;9.244;2023-02-15T15:03:16;8.50;99.90
7194;DHT22;3638;48.820;9.244;2023-02-15T15:05:49;8.50;99.90
7194;DHT22;3638;48.820;9.244;2023-02-15T15:08:32;8.50;99.90
7194;DHT22;3638;48.820;9.244;2023-02-15T15:14:07;8.60;99.90
7194;DHT22;3638;48.820;9.244;2023-02-15T15:16:50;8.50;99.90
7194;DHT22;3638;48.820;9.244;2023-02-15T15:22:34;8.70;99.90
7194;DHT22;3638;48.820;9.244;2023-02-15T15:25:03;8.70;99.90
7194;DHT22;3638;48.820;9.244;2023-02-15T15:27:44;8.60;99.90
7194;DHT22;3638;48.820;9.244;2023-02-15T15:34:06;8.60;99.90
7194;DHT22;3638;48.820;9.244;2023-02-15T15:37:43;8.60;99.90
7194;DHT22;3638;48.820;9.244;2023-02-15T15:44:02;8.50;99.90
7194;DHT22;3638;48.820;9.244;2023-02-15T15:49:45;8.40;99.90
7194;DHT22;3638;48.820;9.244;2023-02-15T15:52:14;8.40;99.90
7194;DHT22;3638;48.820;9.244;2023-02-15T15:54:44;8.30;99.90
7194;DHT22;3638;48.820;9.244;2023-02-15T15:57:17;8.20;99.90
7194;DHT22;3638;48.820;9.244;2023-02-15T15:59:48;8.20;99.90
7194;DHT22;3638;48.820;9.244;2023-02-15T16:02:16;8.10;99.90
7194;DHT22;3638;48.820;9.244;2023-02-15T16:04:44;8.10;99.90
7194;DHT22;3638;48.820;9.244;2023-02-15T16:07:24;8.10;99.90
7194;DHT22;3638;48.820;9.244;2023-02-15T16:09:57;7.90;99.90
7194;DHT22;3638;48.820;9.244;2023-02-15T16:12:27;7.80;99.90
7194;DHT22;3638;48.820;9.244;2023-02-15T16:14:56;7.80;99.90
7194;DHT22;3638;48.820;9.244;2023-02-15T16:17:25;7.80;99.90
7194;DHT22;3638;48.820;9.244;2023-02-15T16:20:01;7.70;99.90
7194;DHT22;3638;48.820;9.244;2023-02-15T16:22:32;7.50;99.90
7194;DHT22;3638;48.820;9.244;2023-02-15T16:25:26;7.50;99.90
7194;DHT22;3638;48.820;9.244;2023-02-15T16:28:06;7.30;99.90
7194;DHT22;3638;48.820;9.244;2023-02-15T16:30:36;7.20;99.90
7194;DHT22;3638;48.820;9.244;2023-02-15T16:33:07;7.10;99.90
7194;DHT22;3638;48.820;9.244;2023-02-15T16:35:37;6.90;99.90
7194;DHT22;3638;48.820;9.244;2023-02-15T16:38:08;6.80;99.90
7194;DHT22;3638;48.820;9.244;2023-02-15T16:40:43;6.70;99.90
7194;DHT22;3638;48.820;9.244;2023-02-15T16:43:18;6.50;99.90
7194;DHT22;3638;48.820;9.244;2023-02-15T16:45:50;6.50;99.90
7194;DHT22;3638;48.820;9.244;2023-02-15T16:48:21;6.40;99.90
7194;DHT22;3638;48.820;9.244;2023-02-15T16:50:51;6.20;99.90
7194;DHT22;3638;48.820;9.244;2023-02-15T16:53:22;6.00;99.90
7194;DHT22;3638;48.820;9.244;2023-02-15T16:55:53;5.90;99.90
7194;DHT22;3638;48.820;9.244;2023-02-15T16:58:27;5.80;99.90
7194;DHT22;3638;48.820;9.244;2023-02-15T17:00:58;5.60;99.90
7194;DHT22;3638;48.820;9.244;2023-02-15T17:03:26;5.40;99.90
7194;DHT22;3638;48.820;9.244;2023-02-15T17:05:55;5.20;99.90
7194;DHT22;3638;48.820;9.244;2023-02-15T17:08:29;5.10;99.90
7194;DHT22;3638;48.820;9.244;2023-02-15T17:11:05;5.10;99.90
7194;DHT22;3638;48.820;9.244;2023-02-15T17:14:11;5.00;99.90
7194;DHT22;3638;48.820;9.244;2023-02-15T17:16:43;4.80;99.90
7194;DHT22;3638;48.820;9.244;2023-02-15T17:19:15;4.80;99.90
7194;DHT22;3638;48.820;9.244;2023-02-15T17:21:49;4.70;99.90
7194;DHT22;3638;48.820;9.244;2023-02-15T17:24:20;4.60;99.90
7194;DHT22;3638;48.820;9.244;2023-02-15T17:26:54;4.50;99.90
7194;DHT22;3638;48.820;9.244;2023-02-15T17:29:31;4.40;99.90
7194;DHT22;3638;48.820;9.244;2023-02-15T17:32:03;4.30;99.90
7194;DHT22;3638;48.820;9.244;2023-02-15T17:34:58;4.30;99.90
7194;DHT22;3638;48.820;9.244;2023-02-15T17:37:31;4.40;99.90
7194;DHT22;3638;48.820;9.244;2023-02-15T17:40:00;4.30;99.90
7194;DHT22;3638;48.820;9.244;2023-02-15T17:42:27;4.10;99.90
7194;DHT22;3638;48.820;9.244;2023-02-15T17:44:54;4.10;99.90
7194;DHT22;3638;48.820;9.244;2023-02-15T17:47:23;4.00;99.90
7194;DHT22;3638;48.820;9.244;2023-02-15T17:49:52;3.80;99.90
7194;DHT22;3638;48.820;9.244;2023-02-15T17:52:19;3.70;99.90
7194;DHT22;3638;48.820;9.244;2023-02-15T17:54:46;3.70;99.90
7194;DHT22;3638;48.820;9.244;2023-02-15T17:57:31;3.70;99.90
7194;DHT22;3638;48.820;9.244;2023-02-15T17:59:59;3.70;99.90
7194;DHT22;3638;48.820;9.244;2023-02-15T18:02:45;3.70;99.90
7194;DHT22;3638;48.820;9.244;2023-02-15T18:05:30;3.60;99.90
7194;DHT22;3638;48.820;9.244;2023-02-15T18:08:16;3.60;99.90
7194;DHT22;3638;48.820;9.244;2023-02-15T18:11:02;3.50;99.90
7194;DHT22;3638;48.820;9.244;2023-02-15T18:13:47;3.50;99.90
7194;DHT22;3638;48.820;9.244;2023-02-15T18:16:15;3.50;99.90
7194;DHT22;3638;48.820;9.244;2023-02-15T18:18:46;3.50;99.90
7194;DHT22;3638;48.820;9.244;2023-02-15T18:21:13;3.40;99.90
7194;DHT22;3638;48.820;9.244;2023-02-15T18:23:41;3.30;99.90
7194;DHT22;3638;48.820;9.244;2023-02-15T18:26:09;3.30;99.90
7194;DHT22;3638;48.820;9.244;2023-02-15T18:28:38;3.20;99.90
7194;DHT22;3638;48.820;9.244;2023-02-15T18:31:05;3.20;99.90
7194;DHT22;3638;48.820;9.244;2023-02-15T18:33:34;3.20;99.90
7194;DHT22;3638;48.820;9.244;2023-02-15T18:36:06;3.20;99.90
7194;DHT22;3638;48.820;9.244;2023-02-15T18:38:34;3.20;99.90
7194;DHT22;3638;48.820;9.244;2023-02-15T18:41:02;3.20;99.90
7194;DHT22;3638;48.820;9.244;2023-02-15T18:43:29;3.10;99.90
7194;DHT22;3638;48.820;9.244;2023-02-15T18:45:56;3.10;99.90
7194;DHT22;3638;48.820;9.244;2023-02-15T18:48:23;3.20;99.90
7194;DHT22;3638;48.820;9.244;2023-02-15T18:50:50;3.10;99.90
7194;DHT22;3638;48.820;9.244;2023-02-15T18:53:20;3.20;99.90
7194;DHT22;3638;48.820;9.244;2023-02-15T18:55:47;3.10;99.90
7194;DHT22;3638;48.820;9.244;2023-02-15T18:58:16;2.90;99.90
7194;DHT22;3638;48.820;9.244;2023-02-15T19:00:44;3.30;99.90
7194;DHT22;3638;48.820;9.244;2023-02-15T19:03:17;3.00;99.90
7194;DHT22;3638;48.820;9.244;2023-02-15T19:05:45;2.90;99.90
7194;DHT22;3638;48.820;9.244;2023-02-15T19:08:16;2.90;99.90
7194;DHT22;3638;48.820;9.244;2023-02-15T19:10:49;2.80;99.90
7194;DHT22;3638;48.820;9.244;2023-02-15T19:13:16;2.70;99.90
7194;DHT22;3638;48.820;9.244;2023-02-15T19:15:43;2.70;99.90
7194;DHT22;3638;48.820;9.244;2023-02-15T19:18:10;2.60;99.90
7194;DHT22;3638;48.820;9.244;2023-02-15T19:20:39;2.50;99.90
7194;DHT22;3638;48.820;9.244;2023-02-15T19:23:14;2.50;99.90
7194;DHT22;3638;48.820;9.244;2023-02-15T19:25:45;2.50;99.90
7194;DHT22;3638;48.820;9.244;2023-02-15T19:28:15;2.40;99.90
7194;DHT22;3638;48.820;9.244;2023-02-15T19:30:44;2.40;99.90
7194;DHT22;3638;48.820;9.244;2023-02-15T19:33:15;2.40;99.90